Airfield :
LOGIN :

Register | Disclaimer

   EN    FR    IT 

 










Legend :    VFR   Marginal VFR   IFR   Intensive IFR   Very Intensive IFR
Visi :
Ceiling :
>= 8 km
>= 3000ft
5 to 8 km
1000 to 3000 ft
1500m to 5 km
500 to 1000 ft
800 to 1500m
200 to 500 ft
< 800m
< 200 ft
Symbols :   Thunderstorms  Fog  Heavy snow  Heavy precipitations  Wind > 20 kt
SIGMETs :     Misc.  Thunderstorms  Icing  Turbulence  Mountain Waves  Volcanic Ashes






- Airport Elevation : 502 ft
- IATA code : ORK


EICK - Cork

CURRENT METAR :
  • 190400Z 05003KT 9999 FEW040 02/M01 Q1041 NOSIG

EXPIRED METARs :
  • 190330Z 05002KT 9999 FEW040 02/M01 Q1040 NOSIG
  • 190300Z 05003KT 9999 FEW040 01/M01 Q1040 NOSIG
  • 190230Z 36003KT 9999 FEW040 01/M01 Q1040 NOSIG
  • 190200Z 32005KT 9999 FEW040 01/M01 Q1040 NOSIG
  • 190130Z 32005KT 9999 FEW040 01/M01 Q1040 NOSIG

TAF TAF EICK
Valid from the 19 at 00:00 until the 20 at 00:00 UTC


182300Z 1900/1924 34005KT 9999 FEW040
BECMG 1913/1915 19010KT
BECMG 1918/1920 22005KT



MET'MAP, your aeronautical weather chart ! - Copyright ORBIFLY December 2007 - Disclaimer

ORBIFLY MET'MAP TEAM :

Programming & Development : Alexandra Zaïnal
Concept & original design : Baudouin d'Aumeries
Assistance for programming : Marc-Olivier Méhu
Technical & hardware support : Manuel Goepfert

Contact : metmap@orbifly.com




SOURCES & CREDITS :

   NOAA